Time;durP1;ratioP1;P1;durP2;ratioP2;P2;SDS_P1;SDS_P2;PMS_P1;PMS_P2;Temp;Humidity;BMP_temperature;BMP_pressure;BME280_temperature;BME280_humidity;BME280_pressure;Samples;Min_cycle;Max_cycle;Signal;HPM_P1;HPM_P2
2022/08/30 00:02:55;;;;;;;25.67;13.00;;;;;;;13.64;100.00;101857.63;5022032;28;20071;-83
2022/08/30 00:05:21;;;;;;;23.23;12.45;;;;;;;13.71;100.00;101854.28;5012348;28;20108;-83
2022/08/30 00:07:47;;;;;;;26.05;12.35;;;;;;;13.82;100.00;101859.31;5033786;28;20029;-83
2022/08/30 00:10:13;;;;;;;22.75;12.55;;;;;;;13.96;100.00;101863.19;5012745;28;20057;-82
2022/08/30 00:12:38;;;;;;;22.30;11.88;;;;;;;14.09;100.00;101871.63;5029908;28;20586;-80
2022/08/30 00:15:05;;;;;;;24.42;13.23;;;;;;;14.14;100.00;101874.66;4996832;28;20045;-83
2022/08/30 00:17:32;;;;;;;25.58;12.15;;;;;;;14.14;100.00;101868.41;5030877;28;20033;-85
2022/08/30 00:19:58;;;;;;;25.40;12.70;;;;;;;14.14;100.00;101874.66;5001599;28;20472;-84
2022/08/30 00:22:24;;;;;;;23.92;12.85;;;;;;;14.17;100.00;101876.16;5027804;28;20040;-83
2022/08/30 00:24:50;;;;;;;24.20;13.45;;;;;;;14.10;100.00;101861.63;5015686;28;20046;-81
2022/08/30 00:27:15;;;;;;;23.15;13.27;;;;;;;14.12;100.00;101865.84;5013819;28;20026;-83
2022/08/30 00:29:41;;;;;;;28.02;13.18;;;;;;;14.11;100.00;101860.63;5015549;28;20120;-84
2022/08/30 00:32:07;;;;;;;23.70;10.35;;;;;;;14.25;100.00;101866.16;5014369;28;20041;-80
2022/08/30 00:34:33;;;;;;;18.73;10.68;;;;;;;14.24;100.00;101853.66;5013074;28;20038;-83
2022/08/30 00:36:59;;;;;;;21.83;12.05;;;;;;;14.34;100.00;101875.09;5030535;28;20112;-82
2022/08/30 00:39:25;;;;;;;22.38;12.38;;;;;;;14.38;100.00;101870.19;4995644;28;20505;-83
2022/08/30 00:41:51;;;;;;;21.92;12.63;;;;;;;14.35;100.00;101871.38;5032726;28;20038;-83
2022/08/30 00:44:16;;;;;;;25.83;12.18;;;;;;;14.35;100.00;101865.97;5021475;28;20035;-80
2022/08/30 00:46:42;;;;;;;28.70;11.82;;;;;;;14.16;100.00;101833.91;5017942;28;20030;-82
2022/08/30 00:49:09;;;;;;;18.85;11.43;;;;;;;14.32;100.00;101860.09;5034823;28;20379;-79
2022/08/30 00:51:35;;;;;;;25.33;12.23;;;;;;;14.39;100.00;101872.72;5031449;28;20565;-81
2022/08/30 00:54:02;;;;;;;20.25;11.05;;;;;;;14.37;100.00;101861.25;5032664;28;20060;-79
2022/08/30 00:56:28;;;;;;;20.90;11.90;;;;;;;14.46;100.00;101873.72;5032760;28;20021;-82
2022/08/30 00:58:56;;;;;;;22.25;12.13;;;;;;;14.41;100.00;101870.69;5016683;28;20094;-81
2022/08/30 01:01:22;;;;;;;18.50;9.70;;;;;;;14.39;100.00;101867.31;4999432;28;20033;-81
2022/08/30 01:03:48;;;;;;;20.65;9.88;;;;;;;14.44;100.00;101869.50;4999067;28;20398;-80
2022/08/30 01:06:14;;;;;;;20.75;9.85;;;;;;;14.42;100.00;101872.41;5016499;28;20025;-83
2022/08/30 01:08:41;;;;;;;19.63;12.00;;;;;;;14.41;100.00;101870.69;5016299;28;20101;-81
2022/08/30 01:11:07;;;;;;;18.83;9.90;;;;;;;14.40;100.00;101879.84;5010557;28;20040;-80
2022/08/30 01:13:34;;;;;;;17.65;10.27;;;;;;;14.27;100.00;101858.72;5033372;28;20104;-80
2022/08/30 01:16:00;;;;;;;19.67;11.38;;;;;;;14.31;100.00;101872.75;5021967;28;20467;-83
2022/08/30 01:18:26;;;;;;;19.77;10.80;;;;;;;14.28;100.00;101875.78;5016390;28;20121;-80
2022/08/30 01:21:07;;;;;;;18.15;10.88;;;;;;;14.21;100.00;101867.53;5015564;28;20079;-81
2022/08/30 01:23:38;;;;;;;19.95;11.45;;;;;;;14.21;100.00;101864.84;5033268;28;20486;-80
2022/08/30 01:26:05;;;;;;;23.15;11.63;;;;;;;14.20;100.00;101875.81;5001662;28;20049;-83
2022/08/30 01:28:31;;;;;;;21.33;12.10;;;;;;;14.14;100.00;101863.00;5016200;28;20460;-80
2022/08/30 01:30:57;;;;;;;19.38;10.50;;;;;;;14.06;100.00;101864.69;4999161;28;20375;-80
2022/08/30 01:33:23;;;;;;;20.27;11.63;;;;;;;14.14;100.00;101876.53;4998821;28;20033;-84
2022/08/30 01:35:56;;;;;;;22.80;11.35;;;;;;;14.04;100.00;101861.31;5053164;28;20052;-82
2022/08/30 01:38:26;;;;;;;17.93;9.60;;;;;;;14.06;100.00;101861.97;5033233;28;20026;-81
2022/08/30 01:41:13;;;;;;;18.50;11.07;;;;;;;14.06;100.00;101874.66;5030941;28;20026;-81
2022/08/30 01:43:39;;;;;;;22.80;10.45;;;;;;;14.01;100.00;101868.94;5031380;28;20033;-83
2022/08/30 01:46:05;;;;;;;16.77;10.18;;;;;;;13.93;100.00;101845.44;5038694;28;20120;-82
2022/08/30 01:48:31;;;;;;;15.82;8.43;;;;;;;14.00;100.00;101859.97;5015818;28;20043;-83
2022/08/30 01:50:57;;;;;;;17.40;10.35;;;;;;;14.03;100.00;101862.34;5030992;28;20036;-84
2022/08/30 01:53:23;;;;;;;17.00;10.60;;;;;;;13.96;100.00;101866.72;5030763;28;20120;-83
2022/08/30 01:55:48;;;;;;;17.77;10.32;;;;;;;13.87;100.00;101853.41;5008436;28;20120;-80
2022/08/30 01:58:14;;;;;;;17.90;9.73;;;;;;;13.86;100.00;101860.66;4999101;28;20029;-82
2022/08/30 02:00:40;;;;;;;12.60;6.10;;;;;;;13.93;100.00;101866.22;5014174;28;20037;-83
2022/08/30 02:03:06;;;;;;;19.65;10.55;;;;;;;13.96;100.00;101863.19;5013800;28;20565;-82
2022/08/30 02:05:32;;;;;;;19.67;10.77;;;;;;;13.89;100.00;101867.56;5034463;28;20084;-79
2022/08/30 02:07:58;;;;;;;19.73;10.18;;;;;;;13.80;100.00;101842.41;4999184;28;20034;-79
2022/08/30 02:10:24;;;;;;;18.17;10.77;;;;;;;13.83;100.00;101858.28;5031256;28;20036;-82
2022/08/30 02:12:50;;;;;;;17.40;9.85;;;;;;;13.82;100.00;101859.31;4999055;28;20071;-86
2022/08/30 02:15:16;;;;;;;16.33;9.88;;;;;;;13.73;100.00;101854.91;5015576;28;20502;-83
2022/08/30 02:17:42;;;;;;;19.83;9.98;;;;;;;13.72;100.00;101859.50;5015591;28;20464;-83
2022/08/30 02:20:08;;;;;;;17.45;10.80;;;;;;;13.71;100.00;101862.38;5022736;28;20116;-84
2022/08/30 02:22:34;;;;;;;17.55;9.52;;;;;;;13.63;100.00;101858.66;5015287;28;20112;-83
2022/08/30 02:25:00;;;;;;;20.58;9.77;;;;;;;13.61;100.00;101868.78;5032104;28;20029;-83
2022/08/30 02:27:26;;;;;;;20.58;11.10;;;;;;;13.56;100.00;101862.19;5015363;28;20412;-83
2022/08/30 02:29:51;;;;;;;19.65;9.63;;;;;;;13.51;100.00;101859.16;4997348;28;20107;-83
2022/08/30 02:32:17;;;;;;;19.65;10.52;;;;;;;13.46;100.00;101875.84;4997376;28;20108;-79
2022/08/30 02:34:43;;;;;;;21.17;10.15;;;;;;;13.37;100.00;101876.88;5014613;28;20117;-81
2022/08/30 02:37:09;;;;;;;19.23;10.30;;;;;;;13.19;100.00;101864.31;5031179;28;20486;-84
2022/08/30 02:39:35;;;;;;;18.35;9.88;;;;;;;13.08;100.00;101861.94;5030357;28;20194;-83
2022/08/30 02:42:01;;;;;;;20.40;10.13;;;;;;;12.96;100.00;101866.78;5032267;28;20088;-82
2022/08/30 02:44:26;;;;;;;20.05;10.43;;;;;;;12.84;100.00;101869.97;5014399;28;20441;-81
2022/08/30 02:46:52;;;;;;;18.23;10.05;;;;;;;12.74;100.00;101880.88;4997865;28;20033;-80
2022/08/30 02:49:18;;;;;;;18.75;10.45;;;;;;;12.59;100.00;101885.19;5030455;28;20113;-82
2022/08/30 02:51:43;;;;;;;20.38;10.55;;;;;;;12.51;100.00;101878.75;4997616;28;20383;-80
2022/08/30 02:54:14;;;;;;;16.48;8.77;;;;;;;12.44;100.00;101883.13;5009199;28;20128;-83
2022/08/30 02:56:41;;;;;;;19.63;10.52;;;;;;;12.36;100.00;101874.13;5030360;28;20021;-79
2022/08/30 02:59:06;;;;;;;19.83;11.02;;;;;;;12.28;100.00;101875.78;5030838;28;20025;-81
2022/08/30 03:01:35;;;;;;;21.02;10.88;;;;;;;12.26;100.00;101890.44;5029674;28;20117;-83
2022/08/30 03:04:01;;;;;;;19.35;10.20;;;;;;;12.21;100.00;101895.44;5000406;28;20543;-81
2022/08/30 03:06:26;;;;;;;24.55;11.50;;;;;;;12.17;100.00;101897.63;5029391;28;20029;-81
2022/08/30 03:08:52;;;;;;;18.10;9.75;;;;;;;12.13;100.00;101898.09;5001947;28;20557;-80
2022/08/30 03:11:18;;;;;;;20.50;9.93;;;;;;;12.06;100.00;101897.88;4995232;28;20372;-82
2022/08/30 03:13:43;;;;;;;23.15;10.73;;;;;;;12.01;100.00;101884.88;5001614;28;20040;-84
2022/08/30 03:16:09;;;;;;;19.50;10.20;;;;;;;11.88;100.00;101873.63;4998937;28;20026;-82
2022/08/30 03:18:35;;;;;;;20.77;10.50;;;;;;;12.02;100.00;101896.50;5031376;28;20327;-82
2022/08/30 03:21:00;;;;;;;26.83;12.13;;;;;;;11.96;100.00;101891.72;5031171;28;20021;-79
2022/08/30 03:23:26;;;;;;;25.13;11.40;;;;;;;11.94;100.00;101893.75;5015472;28;20036;-82
2022/08/30 03:25:52;;;;;;;21.73;10.70;;;;;;;11.96;100.00;101897.13;5014333;28;20060;-81
2022/08/30 03:28:18;;;;;;;21.00;10.00;;;;;;;11.80;100.00;101882.50;5030205;28;20067;-83
2022/08/30 03:30:43;;;;;;;14.93;8.32;;;;;;;11.77;100.00;101888.19;4998178;28;20037;-80
2022/08/30 03:33:09;;;;;;;26.65;10.88;;;;;;;11.73;100.00;101880.59;5009675;28;20028;-82
2022/08/30 03:35:34;;;;;;;18.23;8.82;;;;;;;11.75;100.00;101892.91;4996949;28;20090;-85
2022/08/30 03:38:00;;;;;;;20.88;8.27;;;;;;;11.72;100.00;101881.56;4996705;28;20040;-80
2022/08/30 03:40:26;;;;;;;15.30;8.90;;;;;;;11.86;100.00;101898.06;4996751;28;20122;-81
2022/08/30 03:42:52;;;;;;;21.80;10.30;;;;;;;11.76;100.00;101878.41;5014730;28;20113;-83
2022/08/30 03:45:18;;;;;;;20.73;10.88;;;;;;;11.75;100.00;101878.56;5046621;28;20399;-80
2022/08/30 03:47:45;;;;;;;27.35;11.20;;;;;;;11.79;100.00;101879.94;5022589;28;20048;-81
2022/08/30 03:50:11;;;;;;;21.40;10.20;;;;;;;11.83;100.00;101890.28;5025972;28;20028;-82
2022/08/30 03:52:37;;;;;;;23.83;11.68;;;;;;;11.68;100.00;101881.03;5043480;28;20033;-81
2022/08/30 03:55:03;;;;;;;23.85;11.77;;;;;;;11.74;100.00;101891.19;5004582;28;20402;-80
2022/08/30 03:57:29;;;;;;;23.65;11.45;;;;;;;11.69;100.00;101895.34;5029316;28;20050;-85
2022/08/30 03:59:55;;;;;;;23.25;10.18;;;;;;;11.71;100.00;101896.91;4997729;28;20030;-82
2022/08/30 04:02:21;;;;;;;23.67;11.63;;;;;;;11.64;100.00;101901.19;5031465;28;20067;-82
2022/08/30 04:04:47;;;;;;;26.98;12.00;;;;;;;11.62;100.00;101901.38;5012840;28;20056;-83
2022/08/30 04:07:13;;;;;;;22.10;11.57;;;;;;;11.58;100.00;101904.53;5013709;28;20053;-80
2022/08/30 04:09:38;;;;;;;21.80;8.55;;;;;;;11.60;100.00;101902.53;5029814;28;20112;-83
2022/08/30 04:12:04;;;;;;;18.17;8.48;;;;;;;11.60;100.00;101902.53;4997353;28;20033;-80
2022/08/30 04:14:30;;;;;;;18.85;9.65;;;;;;;11.66;100.00;101912.69;5032578;28;20042;-84
2022/08/30 04:16:56;;;;;;;25.00;10.02;;;;;;;11.67;100.00;101906.31;5013062;28;20029;-81
2022/08/30 04:19:23;;;;;;;23.05;11.38;;;;;;;11.56;100.00;101895.75;5013531;28;20026;-86
2022/08/30 04:21:48;;;;;;;22.25;10.18;;;;;;;11.65;100.00;101900.22;4997088;28;20033;-82
2022/08/30 04:24:14;;;;;;;23.80;10.65;;;;;;;11.63;100.00;101899.53;5033695;28;20029;-84
2022/08/30 04:26:39;;;;;;;25.70;11.85;;;;;;;11.67;100.00;101903.63;5030881;28;20025;-82
2022/08/30 04:29:05;;;;;;;27.25;11.60;;;;;;;11.58;100.00;101907.22;5030748;28;20025;-80
2022/08/30 04:31:31;;;;;;;18.85;8.65;;;;;;;11.64;100.00;101914.66;4996433;28;20045;-83
2022/08/30 04:33:57;;;;;;;23.90;11.00;;;;;;;11.70;100.00;101906.00;5017198;28;20041;-81
2022/08/30 04:36:22;;;;;;;30.48;12.18;;;;;;;11.58;100.00;101894.59;5029582;28;20044;-84
2022/08/30 04:38:48;;;;;;;20.30;10.40;;;;;;;11.52;100.00;101897.06;4997025;28;20041;-83
2022/08/30 04:41:15;;;;;;;22.17;10.65;;;;;;;11.70;100.00;101913.22;4994950;28;20029;-85
2022/08/30 04:43:43;;;;;;;19.08;9.25;;;;;;;11.52;100.00;101894.38;5027709;28;20146;-87
2022/08/30 04:46:09;;;;;;;21.17;10.30;;;;;;;11.55;100.00;101905.69;5029833;28;20061;-81
2022/08/30 04:48:36;;;;;;;26.08;12.65;;;;;;;11.58;100.00;101921.53;4996601;28;20072;-86
2022/08/30 04:51:04;;;;;;;27.92;11.77;;;;;;;11.49;100.00;101917.06;5029659;28;20082;-81
2022/08/30 04:53:30;;;;;;;24.98;10.63;;;;;;;11.31;100.00;101900.91;4995629;28;20041;-83
2022/08/30 04:55:56;;;;;;;28.67;12.20;;;;;;;11.39;100.00;101913.59;5001250;28;20209;-86
2022/08/30 04:58:22;;;;;;;30.90;13.00;;;;;;;11.44;100.00;101931.00;5012974;28;20451;-83
2022/08/30 05:00:47;;;;;;;20.40;9.35;;;;;;;11.47;100.00;101926.31;4996039;28;20022;-82
2022/08/30 05:03:14;;;;;;;27.98;12.60;;;;;;;11.42;100.00;101914.13;4999897;28;20033;-85
2022/08/30 05:05:46;;;;;;;32.42;13.18;;;;;;;11.41;100.00;101911.63;5028680;28;20029;-80
2022/08/30 05:08:13;;;;;;;28.67;12.98;;;;;;;11.35;100.00;101917.59;4996751;28;20036;-86
2022/08/30 05:10:42;;;;;;;26.27;12.13;;;;;;;11.37;100.00;101934.44;5012224;28;20064;-81
2022/08/30 05:13:08;;;;;;;29.15;12.32;;;;;;;11.07;100.00;101903.34;5032331;28;20037;-82
2022/08/30 05:15:34;;;;;;;32.83;13.38;;;;;;;11.35;100.00;101940.00;5030579;28;20047;-85
2022/08/30 05:18:00;;;;;;;28.45;13.02;;;;;;;11.38;100.00;101937.00;5029307;28;20107;-85
2022/08/30 05:20:26;;;;;;;37.67;13.70;;;;;;;11.37;100.00;101942.53;5027869;28;20447;-83
2022/08/30 05:22:52;;;;;;;31.13;12.63;;;;;;;11.29;100.00;101945.97;5014237;28;20063;-85
2022/08/30 05:25:23;;;;;;;31.33;13.10;;;;;;;11.21;100.00;101938.66;5029133;28;20407;-86
2022/08/30 05:27:49;;;;;;;22.15;9.80;;;;;;;11.13;100.00;101933.19;4997795;28;20021;-84
2022/08/30 05:30:16;;;;;;;32.15;11.35;;;;;;;11.26;100.00;101951.66;5031569;28;20033;-84
2022/08/30 05:32:42;;;;;;;44.50;15.15;;;;;;;11.17;100.00;101949.91;5000534;28;20032;-85
2022/08/30 05:35:10;;;;;;;33.67;14.10;;;;;;;11.16;100.00;101953.56;5032761;28;20100;-84
2022/08/30 05:37:35;;;;;;;32.72;14.23;;;;;;;11.18;100.00;101970.41;5016667;28;20022;-83
2022/08/30 05:40:02;;;;;;;34.53;13.35;;;;;;;11.10;100.00;101965.78;5014156;28;20043;-84
2022/08/30 05:42:28;;;;;;;33.80;12.75;;;;;;;11.11;100.00;101966.63;5002193;28;20040;-85
2022/08/30 05:44:53;;;;;;;34.28;12.77;;;;;;;10.96;100.00;101958.22;5016259;28;20021;-86
2022/08/30 05:47:20;;;;;;;29.38;13.35;;;;;;;11.11;100.00;101977.38;5033609;28;20482;-86
2022/08/30 05:49:46;;;;;;;38.60;14.63;;;;;;;11.13;100.00;101995.09;4998893;28;20471;-82
2022/08/30 05:52:14;;;;;;;29.95;13.63;;;;;;;11.12;100.00;102000.63;5033970;28;20083;-81
2022/08/30 05:54:40;;;;;;;32.00;12.90;;;;;;;11.11;100.00;101993.53;5033543;28;20100;-85
2022/08/30 05:57:07;;;;;;;29.60;12.98;;;;;;;11.10;100.00;101975.72;5010187;28;20021;-81
2022/08/30 05:59:32;;;;;;;31.35;13.50;;;;;;;11.16;100.00;101989.41;5013857;28;20085;-85
2022/08/30 06:01:58;;;;;;;34.40;13.82;;;;;;;11.17;100.00;101999.19;5017518;28;20534;-81
2022/08/30 06:04:25;;;;;;;46.72;14.27;;;;;;;11.20;100.00;101998.88;5017778;28;20033;-85
2022/08/30 06:06:50;;;;;;;28.70;12.32;;;;;;;11.23;100.00;102006.66;4999520;28;20044;-82
2022/08/30 06:09:16;;;;;;;36.72;13.60;;;;;;;11.23;100.00;102003.97;5030424;28;20061;-86
2022/08/30 06:11:42;;;;;;;34.35;13.30;;;;;;;11.15;100.00;101982.34;5032098;28;20029;-80
2022/08/30 06:14:08;;;;;;;30.70;12.75;;;;;;;11.22;100.00;101998.75;5003429;28;20109;-86
2022/08/30 06:16:37;;;;;;;31.23;12.80;;;;;;;11.13;100.00;101986.16;5033213;28;20140;-86
2022/08/30 06:19:04;;;;;;;32.08;12.70;;;;;;;11.28;100.00;102010.75;5032107;28;20025;-84
2022/08/30 06:21:33;;;;;;;35.83;13.23;;;;;;;11.32;100.00;102010.28;4996104;28;20123;-82
2022/08/30 06:23:58;;;;;;;35.53;14.05;;;;;;;11.39;100.00;102018.63;5038256;28;20030;-83
2022/08/30 06:26:25;;;;;;;35.75;13.25;;;;;;;11.50;100.00;102022.97;5032787;28;20036;-85
2022/08/30 06:28:51;;;;;;;35.40;14.07;;;;;;;11.69;100.00;102017.44;5032016;28;20017;-86
2022/08/30 06:31:19;;;;;;;31.27;13.82;;;;;;;11.81;100.00;102018.09;4994911;28;20041;-83
2022/08/30 06:33:46;;;;;;;33.53;14.02;;;;;;;11.80;100.00;102011.84;5033399;28;20061;-80
2022/08/30 06:36:14;;;;;;;38.70;14.70;;;;;;;12.01;100.00;102011.59;5015146;28;20491;-81
2022/08/30 06:38:40;;;;;;;31.67;12.88;;;;;;;12.38;100.00;102012.38;5032583;28;20044;-83
2022/08/30 06:41:07;;;;;;;36.53;13.98;;;;;;;12.18;100.00;102000.94;5014167;28;20357;-83
2022/08/30 06:43:32;;;;;;;29.35;12.48;;;;;;;12.21;100.00;102012.25;4993772;28;20044;-85
2022/08/30 06:46:04;;;;;;;29.27;12.50;;;;;;;12.32;100.00;102025.47;5011337;28;20034;-84
2022/08/30 06:48:29;;;;;;;30.33;12.63;;;;;;;12.31;100.00;102023.78;5012616;28;20037;-85
2022/08/30 06:50:55;;;;;;;28.27;12.55;;;;;;;12.37;100.00;102029.56;5031989;28;20033;-84
2022/08/30 06:53:22;;;;;;;34.28;13.25;;;;;;;12.49;100.00;102031.00;5033670;28;20064;-82
2022/08/30 06:55:59;;;;;;;28.95;11.18;;;;;;;12.68;100.00;102038.91;4998330;28;20033;-86
2022/08/30 06:58:26;;;;;;;30.95;12.73;;;;;;;12.76;100.00;102038.94;5018670;28;20042;-85
2022/08/30 07:00:52;;;;;;;19.23;8.98;;;;;;;12.88;100.00;102042.22;5031856;28;20095;-84
2022/08/30 07:03:18;;;;;;;30.60;11.93;;;;;;;13.04;100.00;102043.31;5015123;28;20041;-82
2022/08/30 07:05:44;;;;;;;30.60;12.10;;;;;;;13.16;100.00;102052.84;5014257;28;20021;-85
2022/08/30 07:08:09;;;;;;;21.73;10.10;;;;;;;13.60;100.00;102040.06;5031942;28;20040;-82
2022/08/30 07:10:39;;;;;;;30.45;11.32;;;;;;;15.20;100.00;102027.84;5000583;28;20091;-86
2022/08/30 07:13:05;;;;;;;23.80;10.60;;;;;;;16.35;100.00;102052.41;5015611;28;20068;-85
2022/08/30 07:15:31;;;;;;;19.17;9.85;;;;;;;17.40;98.93;102065.09;5033766;28;20088;-87
2022/08/30 07:20:41;;;;;;;21.50;10.30;;;;;;;19.44;85.77;102068.22;5025684;28;20029;-89
2022/08/30 07:23:08;;;;;;;23.65;10.60;;;;;;;20.11;81.09;102070.19;5012510;28;20094;-83
2022/08/30 07:25:36;;;;;;;16.33;9.05;;;;;;;20.61;77.00;102065.19;5031645;28;20100;-88
2022/08/30 07:28:02;;;;;;;12.63;6.75;;;;;;;20.76;73.00;102066.88;4997909;28;20137;-87
2022/08/30 07:30:27;;;;;;;17.65;8.10;;;;;;;21.17;71.66;102066.59;5030313;28;20546;-84
2022/08/30 07:32:53;;;;;;;19.67;8.77;;;;;;;21.52;67.40;102078.06;5018722;28;20033;-90
2022/08/30 07:35:19;;;;;;;18.38;9.23;;;;;;;21.61;69.06;102067.72;4997451;28;20035;-90
2022/08/30 07:37:45;;;;;;;13.95;6.38;;;;;;;21.84;67.00;102063.59;4995633;28;20072;-89
2022/08/30 07:40:11;;;;;;;16.27;7.90;;;;;;;21.95;65.41;102055.53;5024269;28;20117;-85
2022/08/30 07:42:39;;;;;;;16.02;8.23;;;;;;;22.24;66.23;102063.38;4998048;28;20124;-88
2022/08/30 07:45:07;;;;;;;12.27;7.80;;;;;;;22.42;64.60;102048.91;4995773;28;20025;-85
2022/08/30 07:47:33;;;;;;;10.25;6.05;;;;;;;22.89;61.59;102054.78;5028286;28;20391;-86
2022/08/30 07:50:02;;;;;;;17.95;7.97;;;;;;;23.25;60.86;102063.06;5009287;28;20120;-88
2022/08/30 07:52:31;;;;;;;11.38;7.60;;;;;;;23.52;59.50;102059.19;5027611;28;20075;-86
2022/08/30 07:54:57;;;;;;;12.85;8.02;;;;;;;23.60;56.24;102070.66;4995046;28;20056;-86
2022/08/30 07:57:23;;;;;;;13.20;7.97;;;;;;;23.65;57.13;102069.97;5027999;28;20450;-87
2022/08/30 07:59:49;;;;;;;12.30;7.18;;;;;;;23.98;55.96;102066.81;5010319;28;20163;-87
2022/08/30 08:02:15;;;;;;;9.50;6.68;;;;;;;24.61;55.10;102067.31;5048605;28;20030;-82
2022/08/30 08:04:40;;;;;;;10.93;6.28;;;;;;;24.92;52.23;102075.22;5013214;28;20040;-85
2022/08/30 08:07:06;;;;;;;12.07;7.57;;;;;;;25.01;51.47;102061.97;5010969;28;20395;-88
2022/08/30 08:09:35;;;;;;;10.57;7.25;;;;;;;25.42;51.34;102068.38;5014339;28;20438;-87
2022/08/30 08:12:03;;;;;;;10.65;6.35;;;;;;;25.63;50.32;102075.97;5040300;28;20029;-85
2022/08/30 08:14:29;;;;;;;11.27;5.43;;;;;;;25.98;48.61;102066.75;5018346;28;20029;-87
2022/08/30 08:16:54;;;;;;;11.07;6.20;;;;;;;25.81;47.55;102080.44;4997791;28;20100;-89
2022/08/30 08:19:20;;;;;;;9.85;6.03;;;;;;;25.60;47.39;102078.38;5031001;28;20035;-90
2022/08/30 08:21:46;;;;;;;8.50;5.68;;;;;;;25.55;47.87;102068.09;5014181;28;20037;-85
2022/08/30 08:24:12;;;;;;;7.60;5.57;;;;;;;26.15;48.21;102060.44;5011230;28;20046;-91
2022/08/30 08:26:38;;;;;;;8.35;6.03;;;;;;;26.44;45.20;102075.00;5013540;28;20064;-88
2022/08/30 08:29:05;;;;;;;7.80;5.35;;;;;;;26.48;45.33;102078.91;5029332;28;20041;-87
2022/08/30 08:31:31;;;;;;;7.90;5.32;;;;;;;26.62;44.30;102085.81;5029017;28;20034;-86
2022/08/30 08:33:58;;;;;;;5.75;4.35;;;;;;;26.64;44.22;102082.78;5014626;28;20075;-88
2022/08/30 08:36:25;;;;;;;6.47;4.72;;;;;;;26.47;43.96;102088.28;5008168;28;20038;-90
2022/08/30 08:38:51;;;;;;;14.65;5.47;;;;;;;26.66;43.40;102081.44;5027420;28;20028;-87
2022/08/30 08:41:35;;;;;;;8.50;5.18;;;;;;;26.86;44.73;102085.59;5010832;28;20030;-87
2022/08/30 08:44:14;;;;;;;5.70;4.13;;;;;;;27.27;42.28;102076.00;5033453;28;20077;-88
2022/08/30 08:46:46;;;;;;;8.57;4.60;;;;;;;27.27;42.15;102091.75;4996831;28;20033;-87
2022/08/30 08:49:11;;;;;;;7.45;4.22;;;;;;;27.37;42.93;102075.31;5013694;28;20471;-86
2022/08/30 08:54:46;;;;;;;9.57;5.20;;;;;;;28.62;41.26;102068.88;5015931;28;20375;-88
2022/08/30 08:57:11;;;;;;;5.20;3.45;;;;;;;29.13;37.37;102066.44;5014157;28;20471;-85
2022/08/30 08:59:37;;;;;;;9.80;4.60;;;;;;;28.46;38.95;102063.22;4998469;28;20075;-86
2022/08/30 09:02:29;;;;;;;5.32;4.15;;;;;;;28.13;40.73;102074.50;4999411;28;20034;-87
2022/08/30 09:04:59;;;;;;;;;;;;;;;28.40;38.29;102074.50;5003478;28;20106;-87
2022/08/30 09:07:37;;;;;;;5.07;3.60;;;;;;;28.61;36.86;102083.81;5044910;28;19956;-87
2022/08/30 09:10:03;;;;;;;5.70;3.78;;;;;;;28.44;39.36;102093.06;5002115;28;20411;-85
2022/08/30 09:12:29;;;;;;;8.90;4.13;;;;;;;29.04;40.30;102096.59;5034036;28;20041;-86
2022/08/30 09:15:02;;;;;;;7.45;3.75;;;;;;;29.47;37.96;102083.50;5034515;28;20034;-87
2022/08/30 09:17:28;;;;;;;10.60;4.60;;;;;;;29.91;37.83;102096.97;5003521;28;20025;-85
2022/08/30 09:19:54;;;;;;;5.30;3.63;;;;;;;30.27;36.63;102093.44;5033466;28;20036;-85
2022/08/30 09:22:36;;;;;;;4.78;3.28;;;;;;;29.86;36.61;102090.59;5014725;28;20030;-84
2022/08/30 09:25:20;;;;;;;5.72;3.83;;;;;;;29.80;35.28;102087.81;5015287;28;20045;-86
2022/08/30 09:27:47;;;;;;;4.32;3.50;;;;;;;29.59;37.21;102080.50;5061435;28;20408;-88
2022/08/30 09:30:16;;;;;;;5.03;3.45;;;;;;;29.84;36.60;102084.47;5039711;28;20029;-84
2022/08/30 09:32:57;;;;;;;4.88;3.28;;;;;;;30.17;36.71;102085.94;5045084;28;20036;-85
2022/08/30 09:35:41;;;;;;;5.40;2.80;;;;;;;30.65;32.84;102069.84;5046101;28;20045;-84
2022/08/30 09:38:16;;;;;;;5.35;3.15;;;;;;;30.49;33.70;102087.66;5030072;28;20171;-86
2022/08/30 09:40:44;;;;;;;5.03;3.00;;;;;;;30.79;31.67;102081.22;5013713;28;20036;-88
2022/08/30 09:43:23;;;;;;;2.90;2.40;;;;;;;30.36;33.76;102089.03;5011591;28;20099;-85
2022/08/30 09:45:58;;;;;;;4.55;2.63;;;;;;;30.53;32.09;102077.63;4992544;28;20057;-85
2022/08/30 09:48:43;;;;;;;6.10;2.67;;;;;;;30.30;33.51;102090.97;5033407;28;20032;-84
2022/08/30 09:51:09;;;;;;;3.88;2.80;;;;;;;30.36;32.67;102091.81;5015314;28;20025;-87
2022/08/30 09:53:55;;;;;;;2.83;2.40;;;;;;;29.99;33.40;102092.84;5032619;28;20497;-86
2022/08/30 09:56:23;;;;;;;5.65;3.47;;;;;;;29.93;34.39;102080.06;5031719;28;20033;-85
2022/08/30 09:58:56;;;;;;;3.53;2.20;;;;;;;29.98;32.26;102091.16;5033565;28;20025;-85
2022/08/30 10:01:42;;;;;;;4.07;2.85;;;;;;;29.16;34.37;102090.81;5029831;28;20033;-82
2022/08/30 10:04:31;;;;;;;4.35;2.38;;;;;;;29.91;33.27;102083.13;5016176;28;20449;-86
2022/08/30 10:07:07;;;;;;;5.57;3.10;;;;;;;30.55;33.61;102092.06;5027206;28;20483;-84
2022/08/30 10:09:58;;;;;;;4.50;2.83;;;;;;;30.81;34.13;102090.13;5031599;28;20033;-84
2022/08/30 10:12:31;;;;;;;5.68;2.80;;;;;;;31.72;32.07;102080.63;5011229;28;20108;-84
2022/08/30 10:15:22;;;;;;;3.72;2.70;;;;;;;32.01;30.32;102087.44;5003462;28;20099;-85
2022/08/30 10:18:15;;;;;;;5.60;2.45;;;;;;;31.75;31.00;102093.13;5029629;28;20041;-86
2022/08/30 10:20:53;;;;;;;4.85;2.10;;;;;;;32.36;29.03;102086.34;4997304;28;20048;-87
2022/08/30 10:23:24;;;;;;;4.38;2.97;;;;;;;30.29;33.88;102094.00;5013210;28;20102;-85
2022/08/30 10:25:57;;;;;;;3.67;2.70;;;;;;;28.59;35.04;102063.88;5030043;28;20041;-83
2022/08/30 10:28:43;;;;;;;5.22;2.90;;;;;;;28.31;37.39;102087.13;5014012;28;20025;-85
2022/08/30 10:31:15;;;;;;;4.65;3.30;;;;;;;30.08;34.42;102098.66;5008293;28;20025;-85
2022/08/30 10:33:46;;;;;;;6.63;3.80;;;;;;;30.64;32.16;102101.50;4999147;28;20031;-84
2022/08/30 10:36:14;;;;;;;4.07;2.88;;;;;;;29.19;35.91;102095.84;5011683;28;20041;-87
2022/08/30 10:38:49;;;;;;;4.70;2.55;;;;;;;27.34;37.82;102095.16;5014050;28;20033;-85
2022/08/30 10:41:21;;;;;;;5.22;2.45;;;;;;;25.72;41.04;102090.22;5012280;28;20033;-83
2022/08/30 10:44:04;;;;;;;4.05;2.60;;;;;;;27.40;39.55;102091.38;5013606;28;20079;-83
2022/08/30 10:46:32;;;;;;;3.95;2.90;;;;;;;26.31;41.29;102089.94;4996733;28;20041;-86
2022/08/30 10:49:01;;;;;;;4.40;2.78;;;;;;;24.87;43.62;102075.09;4997663;28;20064;-84
2022/08/30 10:51:32;;;;;;;5.55;3.00;;;;;;;25.35;43.42;102084.19;5014931;28;20251;-84
2022/08/30 10:54:07;;;;;;;4.57;3.05;;;;;;;27.51;38.04;102075.75;4996111;28;20030;-82
2022/08/30 10:56:34;;;;;;;3.83;2.80;;;;;;;29.96;35.86;102080.34;5007312;28;20042;-82
2022/08/30 10:59:03;;;;;;;3.38;2.50;;;;;;;30.53;32.37;102078.47;5015448;28;20037;-86
2022/08/30 11:01:55;;;;;;;3.85;2.30;;;;;;;28.22;36.53;102075.72;4997222;28;20046;-87
2022/08/30 11:05:06;;;;;;;6.15;2.60;;;;;;;29.77;34.70;102079.19;5026555;28;20092;-86
2022/08/30 11:07:57;;;;;;;3.17;2.15;;;;;;;30.57;32.01;102084.31;4973953;28;20045;-84
2022/08/30 11:10:44;;;;;;;2.30;2.10;;;;;;;31.43;30.81;102051.88;5032380;28;20053;-86
2022/08/30 11:13:12;;;;;;;4.15;2.47;;;;;;;31.60;30.74;102077.38;5042410;28;20303;-84
2022/08/30 11:15:56;;;;;;;3.63;1.90;;;;;;;30.50;32.60;102087.34;5039347;28;20036;-84
2022/08/30 11:18:23;;;;;;;4.32;2.47;;;;;;;30.87;32.50;102089.81;5020908;28;20487;-84
2022/08/30 11:20:52;;;;;;;3.20;2.20;;;;;;;31.82;30.91;102081.72;5032953;28;20372;-83
2022/08/30 11:23:17;;;;;;;5.10;2.35;;;;;;;31.36;31.37;102084.69;5036946;28;20017;-84